createdAt,value
2018-05-27T00:00:04.622Z,9.27
2018-05-27T00:02:33.133Z,9.10
2018-05-27T00:05:00.928Z,8.20
2018-05-27T00:07:28.638Z,8.00
2018-05-27T00:09:56.349Z,8.23
2018-05-27T00:12:24.140Z,7.77
2018-05-27T00:14:52.649Z,7.47
2018-05-27T00:17:20.379Z,8.00
2018-05-27T00:19:48.905Z,8.10
2018-05-27T00:22:16.614Z,7.67
2018-05-27T00:24:44.353Z,7.30
2018-05-27T00:27:12.086Z,8.60
2018-05-27T00:29:39.793Z,8.03
2018-05-27T00:32:07.537Z,7.27
2018-05-27T00:34:35.285Z,7.57
2018-05-27T00:37:03.032Z,7.53
2018-05-27T00:39:30.782Z,7.43
2018-05-27T00:41:59.276Z,8.30
2018-05-27T00:44:27.753Z,7.53
2018-05-27T00:46:55.552Z,9.50
2018-05-27T00:49:23.341Z,8.80
2018-05-27T00:51:51.112Z,8.90
2018-05-27T00:54:18.839Z,8.57
2018-05-27T00:56:46.564Z,8.20
2018-05-27T00:59:15.090Z,8.63
2018-05-27T01:01:42.884Z,9.17
2018-05-27T01:04:10.653Z,9.17
2018-05-27T01:06:38.411Z,9.87
2018-05-27T01:09:06.235Z,8.20
2018-05-27T01:11:33.959Z,9.00
2018-05-27T01:14:02.456Z,7.93
2018-05-27T01:16:30.584Z,10.40
2018-05-27T01:18:58.292Z,10.20
2018-05-27T01:21:25.988Z,8.50
2018-05-27T01:23:53.780Z,9.03
2018-05-27T01:26:21.527Z,9.70
2018-05-27T01:28:49.233Z,10.00
2018-05-27T01:31:17.748Z,10.47
2018-05-27T01:33:45.503Z,9.30
2018-05-27T01:36:13.249Z,8.60
2018-05-27T01:38:41.017Z,8.80
2018-05-27T01:41:08.731Z,9.03
2018-05-27T01:43:36.490Z,9.13
2018-05-27T01:46:04.344Z,8.80
2018-05-27T01:48:32.052Z,9.20
2018-05-27T01:51:00.521Z,7.57
2018-05-27T01:53:28.252Z,7.33
2018-05-27T01:55:55.973Z,9.30
2018-05-27T01:58:24.453Z,7.97
2018-05-27T02:00:52.974Z,9.00
2018-05-27T02:03:20.673Z,8.23
2018-05-27T02:05:48.397Z,7.60
2018-05-27T02:08:16.127Z,8.27
2018-05-27T02:10:43.892Z,9.80
2018-05-27T02:13:11.621Z,9.10
2018-05-27T02:15:39.364Z,10.13
2018-05-27T02:18:07.053Z,9.27
2018-05-27T02:20:35.529Z,10.00
2018-05-27T02:23:03.363Z,10.20
2018-05-27T02:25:31.064Z,9.10
2018-05-27T02:27:59.548Z,9.73
2018-05-27T02:30:28.075Z,8.87
2018-05-27T02:32:55.781Z,8.23
2018-05-27T02:35:23.506Z,8.10
2018-05-27T02:37:51.224Z,8.20
2018-05-27T02:40:19.689Z,7.90
2018-05-27T02:42:47.418Z,9.50
2018-05-27T02:45:15.180Z,10.30
2018-05-27T02:47:42.949Z,9.67
2018-05-27T02:50:10.715Z,9.60
2018-05-27T02:52:38.440Z,8.00
2018-05-27T02:55:06.224Z,8.43
2018-05-27T02:57:33.996Z,8.80
2018-05-27T03:00:01.724Z,8.20
2018-05-27T03:02:29.491Z,9.37
2018-05-27T03:04:57.280Z,9.10
2018-05-27T03:07:25.794Z,9.30
2018-05-27T03:09:53.564Z,11.00
2018-05-27T03:12:21.293Z,12.37
2018-05-27T03:14:49.036Z,11.43
2018-05-27T03:17:16.753Z,11.53
2018-05-27T03:19:44.530Z,11.30
2018-05-27T03:22:12.268Z,13.30
2018-05-27T03:24:39.967Z,12.60
2018-05-27T03:27:08.448Z,13.10
2018-05-27T03:29:36.966Z,14.83
2018-05-27T03:32:04.704Z,15.60
2018-05-27T03:34:33.208Z,14.93
2018-05-27T03:37:00.948Z,16.30
2018-05-27T03:39:29.446Z,16.30
2018-05-27T03:41:57.163Z,16.97
2018-05-27T03:44:24.948Z,17.27
2018-05-27T03:46:53.494Z,18.10
2018-05-27T03:49:21.195Z,18.33
2018-05-27T03:51:49.700Z,18.73
2018-05-27T03:54:17.453Z,19.10
2018-05-27T03:56:45.200Z,22.00
2018-05-27T03:59:13.780Z,20.87
2018-05-27T04:01:42.277Z,21.33
2018-05-27T04:04:21.942Z,18.50
2018-05-27T04:07:11.469Z,20.33
2018-05-27T04:09:39.214Z,18.57
2018-05-27T04:12:06.926Z,18.10
2018-05-27T04:14:34.636Z,17.50
2018-05-27T04:17:02.405Z,18.37
2018-05-27T04:19:30.140Z,19.17
2018-05-27T04:21:57.856Z,17.77
2018-05-27T04:24:26.357Z,21.17
2018-05-27T04:26:54.092Z,21.23
2018-05-27T04:29:21.826Z,22.77
2018-05-27T04:31:49.596Z,23.33
2018-05-27T04:34:17.324Z,23.77
2018-05-27T04:36:45.045Z,24.50
2018-05-27T04:39:12.879Z,24.60
2018-05-27T04:41:40.913Z,26.83
2018-05-27T04:44:08.716Z,24.60
2018-05-27T04:46:36.456Z,25.20
2018-05-27T04:49:04.259Z,25.77
2018-05-27T04:51:31.972Z,26.00
2018-05-27T04:53:59.716Z,25.87
2018-05-27T04:56:28.193Z,28.00
2018-05-27T04:58:56.665Z,26.03
2018-05-27T05:01:24.463Z,25.23
2018-05-27T05:03:52.184Z,27.57
2018-05-27T05:06:19.915Z,26.93
2018-05-27T05:08:47.682Z,26.53
2018-05-27T05:11:15.384Z,27.27
2018-05-27T05:13:43.941Z,25.20
2018-05-27T05:16:11.712Z,26.17
2018-05-27T05:18:39.416Z,24.93
2018-05-27T05:21:07.133Z,24.27
2018-05-27T05:23:34.881Z,25.40
2018-05-27T05:26:02.643Z,25.63
2018-05-27T05:28:30.354Z,25.13
2018-05-27T05:30:58.873Z,24.23
2018-05-27T05:33:26.688Z,21.07
2018-05-27T05:35:54.474Z,20.60
2018-05-27T05:38:23.017Z,21.90
2018-05-27T05:40:50.737Z,23.03
2018-05-27T05:43:18.483Z,23.57
2018-05-27T05:45:46.985Z,22.50
2018-05-27T05:48:14.716Z,22.73
2018-05-27T05:50:43.244Z,22.97
2018-05-27T05:53:11.032Z,21.10
2018-05-27T05:55:38.749Z,20.40
2018-05-27T05:58:06.461Z,22.50
2018-05-27T06:00:34.245Z,22.47
2018-05-27T06:03:02.768Z,22.43
2018-05-27T06:05:30.493Z,20.10
2018-05-27T06:07:59.008Z,20.63
2018-05-27T06:10:26.748Z,18.40
2018-05-27T06:12:55.244Z,18.80
2018-05-27T06:15:23.013Z,15.93
2018-05-27T06:17:50.731Z,13.27
2018-05-27T06:20:18.433Z,11.50
2018-05-27T06:22:46.440Z,12.67
2018-05-27T06:25:14.148Z,15.03
2018-05-27T06:27:42.628Z,13.27
2018-05-27T06:30:11.130Z,11.50
2018-05-27T06:32:38.871Z,12.73
2018-05-27T06:35:07.340Z,9.67
2018-05-27T06:37:35.101Z,10.00
2018-05-27T06:40:02.865Z,8.73
2018-05-27T06:42:30.573Z,9.77
2018-05-27T06:44:58.385Z,9.60
2018-05-27T06:47:26.107Z,9.80
2018-05-27T06:49:53.883Z,10.40
2018-05-27T06:52:21.757Z,14.70
2018-05-27T06:54:49.464Z,11.87
2018-05-27T06:57:17.975Z,14.23
2018-05-27T06:59:45.739Z,15.40
2018-05-27T07:02:13.462Z,18.93
2018-05-27T07:04:41.965Z,16.77
2018-05-27T07:07:09.699Z,17.17
2018-05-27T07:09:37.404Z,17.97
2018-05-27T07:12:05.161Z,18.60
2018-05-27T07:14:33.485Z,20.00
2018-05-27T07:17:01.271Z,19.27
2018-05-27T07:19:28.978Z,19.30
2018-05-27T07:21:56.716Z,19.70
2018-05-27T07:24:25.234Z,22.07
2018-05-27T07:26:52.940Z,19.40
2018-05-27T07:29:20.676Z,18.83
2018-05-27T07:31:48.372Z,17.80
2018-05-27T07:34:16.117Z,20.50
2018-05-27T07:36:43.872Z,17.13
2018-05-27T07:39:11.597Z,16.90
2018-05-27T07:41:39.337Z,17.10
2018-05-27T07:44:07.876Z,16.03
2018-05-27T07:46:35.796Z,15.80
2018-05-27T07:49:05.273Z,19.03
2018-05-27T07:51:33.083Z,18.03
2018-05-27T07:54:00.800Z,18.37
2018-05-27T07:56:28.516Z,19.73
2018-05-27T07:58:56.304Z,21.43
2018-05-27T08:01:24.064Z,21.10
2018-05-27T08:03:51.850Z,23.00
2018-05-27T08:06:19.597Z,20.30
2018-05-27T08:08:47.305Z,20.70
2018-05-27T08:11:15.784Z,21.33
2018-05-27T08:13:44.303Z,21.40
2018-05-27T08:16:12.045Z,21.63
2018-05-27T08:18:39.762Z,21.40
2018-05-27T08:21:07.531Z,20.30
2018-05-27T08:23:35.257Z,21.10
2018-05-27T08:26:02.996Z,19.70
2018-05-27T08:28:30.740Z,18.97
2018-05-27T08:30:59.216Z,18.70
2018-05-27T08:33:27.740Z,19.63
2018-05-27T08:35:55.461Z,17.50
2018-05-27T08:38:24.638Z,16.30
2018-05-27T08:40:52.424Z,18.90
2018-05-27T08:43:20.898Z,17.53
2018-05-27T08:45:48.765Z,16.30
2018-05-27T08:48:16.482Z,18.50
2018-05-27T08:50:44.197Z,17.97
2018-05-27T08:53:12.717Z,16.90
2018-05-27T08:55:40.429Z,18.10
2018-05-27T08:58:08.177Z,17.40
2018-05-27T09:00:35.940Z,15.53
2018-05-27T09:03:03.704Z,17.50
2018-05-27T09:05:31.416Z,15.63
2018-05-27T09:07:59.291Z,16.40
2018-05-27T09:10:27.020Z,17.57
2018-05-27T09:12:55.545Z,16.87
2018-05-27T09:15:23.416Z,14.30
2018-05-27T09:17:51.211Z,15.07
2018-05-27T09:20:18.949Z,14.50
2018-05-27T09:22:46.695Z,13.63
2018-05-27T09:25:14.422Z,12.97
2018-05-27T09:27:42.182Z,11.93
2018-05-27T09:30:09.922Z,8.73
2018-05-27T09:32:37.670Z,7.37
2018-05-27T09:35:05.448Z,8.80
2018-05-27T09:37:33.217Z,7.77
2018-05-27T09:40:00.933Z,8.43
2018-05-27T09:42:28.645Z,9.40
2018-05-27T09:44:56.396Z,9.50
2018-05-27T09:47:24.103Z,9.27
2018-05-27T09:49:52.634Z,9.47
2018-05-27T09:52:20.378Z,8.63
2018-05-27T09:54:48.089Z,11.33
2018-05-27T09:57:16.029Z,9.13
2018-05-27T09:59:43.780Z,9.57
2018-05-27T10:02:11.499Z,9.40
2018-05-27T10:04:40.124Z,9.00
2018-05-27T10:07:07.856Z,9.23
2018-05-27T10:09:36.382Z,9.57
2018-05-27T10:12:04.140Z,10.10
2018-05-27T10:14:31.944Z,8.90
2018-05-27T10:16:59.719Z,11.47
2018-05-27T10:19:27.432Z,10.03
2018-05-27T10:21:55.197Z,8.73
2018-05-27T10:24:23.024Z,10.37
2018-05-27T10:26:51.583Z,10.20
2018-05-27T10:29:19.376Z,10.77
2018-05-27T10:31:47.154Z,8.63
2018-05-27T10:34:14.948Z,10.50
2018-05-27T10:36:42.784Z,10.93
2018-05-27T10:39:10.612Z,10.50
2018-05-27T10:41:38.360Z,10.10
2018-05-27T10:44:06.160Z,10.67
2018-05-27T10:46:35.482Z,11.93
2018-05-27T10:49:03.209Z,9.90
2018-05-27T10:51:31.760Z,10.87
2018-05-27T10:53:59.504Z,11.60
2018-05-27T10:56:27.245Z,11.30
2018-05-27T10:58:54.984Z,10.80
2018-05-27T11:01:23.498Z,11.07
2018-05-27T11:03:51.202Z,10.50
2018-05-27T11:06:18.951Z,10.70
2018-05-27T11:08:46.730Z,9.37
2018-05-27T11:11:15.452Z,11.17
2018-05-27T11:13:44.002Z,9.53
2018-05-27T11:16:11.785Z,9.40
2018-05-27T11:18:40.268Z,9.07
2018-05-27T11:21:08.800Z,10.43
2018-05-27T11:23:36.561Z,9.53
2018-05-27T11:26:04.272Z,9.30
2018-05-27T11:28:32.828Z,9.00
2018-05-27T11:31:00.567Z,9.23
2018-05-27T11:33:28.265Z,9.87
2018-05-27T11:35:55.987Z,10.13
2018-05-27T11:38:23.724Z,8.97
2018-05-27T11:40:52.392Z,9.90
2018-05-27T11:43:20.154Z,9.73
2018-05-27T11:45:47.882Z,10.00
2018-05-27T11:48:15.583Z,9.43
2018-05-27T11:50:43.342Z,9.40
2018-05-27T11:53:11.116Z,10.73
2018-05-27T11:55:39.719Z,10.30
2018-05-27T11:58:08.196Z,9.80
2018-05-27T12:00:36.722Z,9.37
2018-05-27T12:03:04.445Z,10.30
2018-05-27T12:05:32.245Z,8.50
2018-05-27T12:07:59.980Z,9.33
2018-05-27T12:10:27.696Z,8.00
2018-05-27T12:12:55.425Z,9.33
2018-05-27T12:15:23.225Z,10.27
2018-05-27T12:17:50.929Z,9.23
2018-05-27T12:20:18.849Z,11.23
2018-05-27T12:22:46.599Z,11.00
2018-05-27T12:25:14.397Z,11.40
2018-05-27T12:27:42.153Z,10.60
2018-05-27T12:30:09.907Z,11.53
2018-05-27T12:32:37.632Z,9.70
2018-05-27T12:35:05.344Z,10.70
2018-05-27T12:37:33.072Z,12.17
2018-05-27T12:40:01.083Z,13.10
2018-05-27T12:42:29.636Z,10.93
2018-05-27T12:44:57.376Z,12.63
2018-05-27T12:47:25.192Z,11.30
2018-05-27T12:49:53.756Z,11.13
2018-05-27T12:52:21.733Z,10.40
2018-05-27T12:54:49.484Z,9.90
2018-05-27T12:57:17.228Z,8.03
2018-05-27T12:59:44.967Z,9.33
2018-05-27T13:02:12.755Z,8.40
2018-05-27T13:04:40.532Z,8.00
2018-05-27T13:07:08.285Z,8.50
2018-05-27T13:09:36.020Z,8.03
2018-05-27T13:12:03.744Z,7.80
2018-05-27T13:14:31.588Z,8.77
2018-05-27T13:16:59.666Z,7.80
2018-05-27T13:19:27.128Z,6.80
2018-05-27T13:21:54.869Z,6.70
2018-05-27T13:24:22.644Z,6.73
2018-05-27T13:26:50.412Z,7.13
2018-05-27T13:29:18.132Z,5.83
2018-05-27T13:31:45.964Z,7.20
2018-05-27T13:34:13.698Z,6.40
2018-05-27T13:36:41.560Z,6.70
2018-05-27T13:39:09.285Z,5.80
2018-05-27T13:41:37.838Z,6.40
2018-05-27T13:44:05.751Z,5.00
2018-05-27T13:46:33.580Z,5.87
2018-05-27T13:49:01.518Z,6.83
2018-05-27T13:51:29.260Z,6.17
2018-05-27T13:53:56.984Z,5.97
2018-05-27T13:56:25.557Z,5.83
2018-05-27T13:58:53.321Z,5.20
2018-05-27T14:01:21.912Z,5.00
2018-05-27T14:03:50.400Z,6.00
2018-05-27T14:06:19.152Z,6.53
2018-05-27T14:08:46.917Z,6.90
2018-05-27T14:11:14.619Z,6.30
2018-05-27T14:13:43.132Z,6.90
2018-05-27T14:16:10.857Z,6.20
2018-05-27T14:18:38.627Z,6.47
2018-05-27T14:21:07.232Z,6.10
2018-05-27T14:23:34.981Z,6.60
2018-05-27T14:26:02.690Z,6.03
2018-05-27T14:28:30.439Z,6.00
2018-05-27T14:30:58.184Z,6.10
2018-05-27T14:33:25.908Z,5.53
2018-05-27T14:35:53.786Z,5.40
2018-05-27T14:38:22.259Z,6.53
2018-05-27T14:40:50.763Z,5.03
2018-05-27T14:43:18.488Z,5.40
2018-05-27T14:45:46.194Z,5.70
2018-05-27T14:48:13.948Z,5.20
2018-05-27T14:50:42.444Z,5.40
2018-05-27T14:53:10.442Z,5.77
2018-05-27T14:55:38.192Z,5.93
2018-05-27T14:58:05.975Z,5.70
2018-05-27T15:00:34.513Z,5.27
2018-05-27T15:03:02.246Z,6.20
2018-05-27T15:05:30.048Z,6.47
2018-05-27T15:07:57.836Z,6.63
2018-05-27T15:10:25.547Z,5.40
2018-05-27T15:12:54.049Z,6.20
2018-05-27T15:15:21.827Z,5.70
2018-05-27T15:17:49.598Z,6.03
2018-05-27T15:20:17.360Z,5.40
2018-05-27T15:22:45.115Z,6.67
2018-05-27T15:25:12.987Z,6.07
2018-05-27T15:27:40.755Z,5.67
2018-05-27T15:30:08.474Z,5.13
2018-05-27T15:32:36.311Z,6.17
2018-05-27T15:35:04.052Z,5.73
2018-05-27T15:37:31.789Z,5.37
2018-05-27T15:40:00.289Z,5.67
2018-05-27T15:42:28.035Z,5.93
2018-05-27T15:44:55.748Z,5.90
2018-05-27T15:47:23.461Z,5.23
2018-05-27T15:49:52.012Z,5.17
2018-05-27T15:52:19.744Z,5.97
2018-05-27T15:54:47.568Z,4.37
2018-05-27T15:57:16.056Z,4.37
2018-05-27T15:59:43.853Z,4.80
2018-05-27T16:02:11.612Z,4.73
2018-05-27T16:04:39.368Z,4.80
2018-05-27T16:07:07.076Z,4.90
2018-05-27T16:09:34.791Z,4.67
2018-05-27T16:12:02.610Z,4.60
2018-05-27T16:14:30.326Z,3.97
2018-05-27T16:16:58.039Z,4.10
2018-05-27T16:19:26.556Z,4.50
2018-05-27T16:21:54.286Z,4.50
2018-05-27T16:24:23.190Z,6.37
2018-05-27T16:26:51.007Z,4.70
2018-05-27T16:29:18.733Z,4.47
2018-05-27T16:31:46.435Z,5.53
2018-05-27T16:34:14.163Z,5.53
2018-05-27T16:36:41.941Z,4.47
2018-05-27T16:39:09.654Z,5.40
2018-05-27T16:41:38.913Z,4.73
2018-05-27T16:44:06.635Z,4.90
2018-05-27T16:46:35.141Z,5.07
2018-05-27T16:49:02.913Z,4.53
2018-05-27T16:51:30.645Z,4.53
2018-05-27T16:53:58.418Z,4.30
2018-05-27T16:56:26.250Z,4.53
2018-05-27T16:58:53.961Z,3.93
2018-05-27T17:01:21.724Z,4.07
2018-05-27T17:03:49.508Z,5.27
2018-05-27T17:06:18.468Z,4.13
2018-05-27T17:08:46.196Z,3.87
2018-05-27T17:11:14.704Z,3.57
2018-05-27T17:13:43.179Z,4.80
2018-05-27T17:16:11.667Z,3.27
2018-05-27T17:18:40.192Z,4.53
2018-05-27T17:21:07.915Z,4.33
2018-05-27T17:23:35.635Z,4.57
2018-05-27T17:26:03.363Z,4.60
2018-05-27T17:28:31.585Z,4.00
2018-05-27T17:30:59.287Z,4.60
2018-05-27T17:33:27.081Z,4.40
2018-05-27T17:35:54.853Z,5.30
2018-05-27T17:38:22.757Z,5.60
2018-05-27T17:40:51.313Z,4.70
2018-05-27T17:43:19.024Z,6.87
2018-05-27T17:45:46.815Z,5.47
2018-05-27T17:48:14.677Z,4.77
2018-05-27T17:50:42.465Z,7.07
2018-05-27T17:53:10.180Z,7.03
2018-05-27T17:55:37.907Z,5.27
2018-05-27T17:58:05.677Z,5.50
2018-05-27T18:00:34.165Z,6.77
2018-05-27T18:03:02.811Z,6.50
2018-05-27T18:05:30.560Z,6.10
2018-05-27T18:07:58.266Z,9.77
2018-05-27T18:10:26.039Z,16.57
2018-05-27T18:12:54.642Z,14.60
2018-05-27T18:15:22.416Z,6.10
2018-05-27T18:17:50.180Z,7.40
2018-05-27T18:20:17.948Z,5.17
2018-05-27T18:22:45.696Z,6.60
2018-05-27T18:25:13.463Z,6.37
2018-05-27T18:27:41.243Z,5.50
2018-05-27T18:30:09.131Z,5.57
2018-05-27T18:32:37.020Z,5.53
2018-05-27T18:35:04.743Z,17.10
2018-05-27T18:37:32.504Z,8.60
2018-05-27T18:40:00.270Z,7.30
2018-05-27T18:42:27.992Z,11.77
2018-05-27T18:44:56.534Z,17.20
2018-05-27T18:47:24.303Z,29.73
2018-05-27T18:49:52.032Z,46.10
2018-05-27T18:52:19.793Z,78.10
2018-05-27T18:54:47.562Z,84.27
2018-05-27T18:57:15.280Z,29.67
2018-05-27T18:59:43.064Z,48.20
2018-05-27T19:02:11.582Z,19.00
2018-05-27T19:04:39.308Z,7.77
2018-05-27T19:07:07.853Z,19.77
2018-05-27T19:09:35.609Z,17.93
2018-05-27T19:12:03.312Z,13.90
2018-05-27T19:14:31.852Z,11.70
2018-05-27T19:16:59.556Z,7.03
2018-05-27T19:19:28.264Z,7.70
2018-05-27T19:21:55.999Z,5.90
2018-05-27T19:24:24.468Z,6.93
2018-05-27T19:26:52.272Z,7.23
2018-05-27T19:29:19.982Z,6.30
2018-05-27T19:31:47.703Z,10.73
2018-05-27T19:34:15.425Z,8.30
2018-05-27T19:36:43.128Z,5.63
2018-05-27T19:39:10.921Z,5.57
2018-05-27T19:41:38.645Z,6.43
2018-05-27T19:44:07.141Z,5.87
2018-05-27T19:46:34.860Z,6.00
2018-05-27T19:49:02.582Z,4.67
2018-05-27T19:51:30.292Z,7.70
2018-05-27T19:53:58.018Z,4.90
2018-05-27T19:56:25.720Z,6.37
2018-05-27T19:58:53.440Z,4.80
2018-05-27T20:01:21.193Z,5.97
2018-05-27T20:03:49.053Z,6.13
2018-05-27T20:06:17.604Z,7.90
2018-05-27T20:08:45.332Z,7.50
2018-05-27T20:11:13.861Z,6.00
2018-05-27T20:13:42.365Z,6.53
2018-05-27T20:16:10.222Z,4.43
2018-05-27T20:18:37.984Z,5.40
2018-05-27T20:21:05.720Z,4.90
2018-05-27T20:23:34.219Z,4.47
2018-05-27T20:26:02.722Z,4.80
2018-05-27T20:28:30.508Z,4.60
2018-05-27T20:30:58.273Z,4.53
2018-05-27T20:33:26.013Z,4.30
2018-05-27T20:35:53.813Z,5.17
2018-05-27T20:38:21.636Z,6.90
2018-05-27T20:40:49.385Z,5.07
2018-05-27T20:43:17.160Z,5.30
2018-05-27T20:45:44.942Z,7.03
2018-05-27T20:48:12.707Z,8.10
2018-05-27T20:50:40.453Z,6.53
2018-05-27T20:53:08.187Z,7.70
2018-05-27T20:55:36.743Z,8.70
2018-05-27T20:58:04.528Z,8.27
2018-05-27T21:00:32.432Z,8.40
2018-05-27T21:03:00.359Z,9.63
2018-05-27T21:05:29.017Z,9.20
2018-05-27T21:07:56.800Z,8.90
2018-05-27T21:10:24.673Z,9.33
2018-05-27T21:12:52.525Z,7.70
2018-05-27T21:15:20.399Z,9.07
2018-05-27T21:17:48.156Z,8.43
2018-05-27T21:20:16.048Z,7.00
2018-05-27T21:22:44.585Z,6.30
2018-05-27T21:25:12.647Z,6.00
2018-05-27T21:27:40.537Z,7.43
2018-05-27T21:30:08.299Z,6.10
2018-05-27T21:32:36.042Z,7.67
2018-05-27T21:35:03.933Z,6.53
2018-05-27T21:37:31.651Z,6.37
2018-05-27T21:39:59.983Z,7.10
2018-05-27T21:42:28.603Z,7.80
2018-05-27T21:44:57.111Z,7.67
2018-05-27T21:47:24.844Z,8.20
2018-05-27T21:49:53.386Z,8.57
2018-05-27T21:52:21.180Z,8.67
2018-05-27T21:54:49.715Z,7.97
2018-05-27T21:57:17.440Z,7.63
2018-05-27T21:59:45.953Z,7.97
2018-05-27T22:02:13.694Z,8.07
2018-05-27T22:04:41.401Z,7.23
2018-05-27T22:07:09.124Z,7.20
2018-05-27T22:09:36.852Z,6.57
2018-05-27T22:12:04.576Z,6.50
2018-05-27T22:14:32.338Z,7.07
2018-05-27T22:17:00.105Z,8.00
2018-05-27T22:19:27.807Z,6.70
2018-05-27T22:21:55.563Z,7.57
2018-05-27T22:24:23.276Z,7.10
2018-05-27T22:26:51.048Z,6.80
2018-05-27T22:29:18.797Z,8.37
2018-05-27T22:31:46.551Z,7.23
2018-05-27T22:34:14.293Z,7.63
2018-05-27T22:36:42.796Z,7.10
2018-05-27T22:39:10.548Z,7.17
2018-05-27T22:41:39.015Z,7.27
2018-05-27T22:44:07.511Z,7.63
2018-05-27T22:46:36.001Z,7.60
2018-05-27T22:49:03.756Z,7.73
2018-05-27T22:51:33.064Z,8.47
2018-05-27T22:54:01.880Z,8.73
2018-05-27T22:56:29.589Z,8.60
2018-05-27T22:58:58.151Z,8.10
2018-05-27T23:01:25.856Z,9.30
2018-05-27T23:03:54.329Z,9.10
2018-05-27T23:06:22.823Z,9.63
2018-05-27T23:08:50.635Z,10.03
2018-05-27T23:11:18.333Z,10.90
2018-05-27T23:13:46.867Z,11.33
2018-05-27T23:16:14.577Z,12.13
2018-05-27T23:18:43.100Z,11.47
2018-05-27T23:21:10.876Z,10.83
2018-05-27T23:23:38.593Z,11.60
2018-05-27T23:26:07.160Z,12.30
2018-05-27T23:28:34.876Z,11.93
2018-05-27T23:31:02.719Z,9.63
2018-05-27T23:33:30.624Z,8.63
2018-05-27T23:35:58.403Z,8.57
2018-05-27T23:38:26.156Z,9.30
2018-05-27T23:40:53.883Z,8.93
2018-05-27T23:43:21.692Z,9.67
2018-05-27T23:45:49.441Z,9.13
2018-05-27T23:48:17.986Z,8.43
2018-05-27T23:50:46.469Z,8.37
2018-05-27T23:53:14.168Z,8.30
2018-05-27T23:55:41.932Z,8.40
2018-05-27T23:58:09.718Z,7.63
